createdAt,value
2019-03-01T00:00:15.150Z,19.05
2019-03-01T00:01:15.127Z,19.05
2019-03-01T00:02:15.364Z,19.02
2019-03-01T00:03:15.022Z,19.05
2019-03-01T00:04:14.869Z,19.02
2019-03-01T00:05:15.080Z,19.03
2019-03-01T00:06:15.064Z,19.01
2019-03-01T00:07:15.013Z,19.03
2019-03-01T00:08:15.146Z,19.02
2019-03-01T00:09:14.930Z,19.02
2019-03-01T00:10:14.982Z,19.02
2019-03-01T00:11:15.105Z,19.01
2019-03-01T00:12:15.039Z,19.01
2019-03-01T00:13:15.323Z,19
2019-03-01T00:14:14.881Z,19
2019-03-01T00:15:15.002Z,18.99
2019-03-01T00:16:14.994Z,19
2019-03-01T00:17:14.994Z,18.98
2019-03-01T00:18:15.082Z,18.99
2019-03-01T00:19:15.109Z,18.99
2019-03-01T00:20:14.827Z,18.99
2019-03-01T00:21:15.053Z,18.98
2019-03-01T00:22:15.187Z,18.98
2019-03-01T00:23:14.965Z,18.98
2019-03-01T00:24:15.379Z,18.98
2019-03-01T00:25:14.886Z,18.96
2019-03-01T00:26:14.914Z,18.98
2019-03-01T00:27:15.145Z,18.98
2019-03-01T00:28:14.911Z,18.97
2019-03-01T00:29:14.979Z,18.96
2019-03-01T00:30:15.152Z,18.96
2019-03-01T00:31:15.010Z,18.94
2019-03-01T00:32:15.073Z,18.95
2019-03-01T00:33:14.769Z,18.92
2019-03-01T00:34:14.943Z,18.94
2019-03-01T00:35:15.074Z,18.94
2019-03-01T00:36:15.262Z,18.95
2019-03-01T00:37:15.113Z,18.92
2019-03-01T00:38:15.088Z,18.94
2019-03-01T00:39:14.878Z,18.93
2019-03-01T00:40:15.083Z,18.93
2019-03-01T00:41:14.958Z,18.92
2019-03-01T00:42:15.023Z,18.91
2019-03-01T00:43:15.156Z,18.91
2019-03-01T00:44:14.919Z,18.91
2019-03-01T00:45:15.118Z,18.91
2019-03-01T00:46:15.182Z,18.88
2019-03-01T00:47:14.925Z,18.89
2019-03-01T00:48:15.033Z,18.87
2019-03-01T00:49:14.812Z,18.89
2019-03-01T00:50:15.002Z,18.89
2019-03-01T00:51:15.213Z,18.86
2019-03-01T00:52:14.900Z,18.88
2019-03-01T00:53:15.030Z,18.88
2019-03-01T00:54:14.923Z,18.86
2019-03-01T00:55:14.990Z,18.85
2019-03-01T00:56:15.039Z,18.87
2019-03-01T00:57:14.958Z,18.85
2019-03-01T00:58:14.908Z,18.87
2019-03-01T00:59:15.180Z,18.85
2019-03-01T01:00:14.965Z,18.86
2019-03-01T01:01:14.935Z,18.85
2019-03-01T01:02:15.045Z,18.86
2019-03-01T01:03:14.926Z,18.83
2019-03-01T01:04:15.038Z,18.84
2019-03-01T01:05:14.804Z,18.83
2019-03-01T01:06:14.908Z,18.84
2019-03-01T01:07:15.334Z,18.81
2019-03-01T01:08:14.874Z,18.83
2019-03-01T01:09:14.955Z,18.84
2019-03-01T01:10:15.017Z,18.81
2019-03-01T01:11:14.829Z,18.8
2019-03-01T01:12:15.102Z,18.82
2019-03-01T01:13:15.155Z,18.81
2019-03-01T01:14:14.840Z,18.8
2019-03-01T01:15:14.998Z,18.81
2019-03-01T01:16:14.792Z,18.79
2019-03-01T01:17:14.947Z,18.8
2019-03-01T01:18:15.045Z,18.82
2019-03-01T01:19:14.831Z,18.81
2019-03-01T01:20:14.876Z,18.8
2019-03-01T01:21:14.938Z,18.8
2019-03-01T01:22:15.093Z,18.77
2019-03-01T01:23:14.983Z,18.8
2019-03-01T01:24:15.050Z,18.8
2019-03-01T01:25:14.820Z,18.78
2019-03-01T01:26:14.972Z,18.8
2019-03-01T01:27:14.964Z,18.77
2019-03-01T01:28:14.846Z,18.79
2019-03-01T01:29:14.892Z,18.79
2019-03-01T01:30:15.104Z,18.78
2019-03-01T01:31:15.006Z,18.78
2019-03-01T01:32:14.919Z,18.77
2019-03-01T01:33:15.021Z,18.74
2019-03-01T01:34:14.889Z,18.76
2019-03-01T01:35:14.938Z,18.74
2019-03-01T01:36:15.058Z,18.76
2019-03-01T01:37:14.872Z,18.76
2019-03-01T01:38:14.969Z,18.77
2019-03-01T01:39:14.783Z,18.76
2019-03-01T01:40:14.912Z,18.74
2019-03-01T01:41:14.989Z,18.73
2019-03-01T01:42:14.877Z,18.72
2019-03-01T01:43:14.835Z,18.71
2019-03-01T01:44:14.938Z,18.73
2019-03-01T01:45:14.857Z,18.72
2019-03-01T01:46:14.889Z,18.73
2019-03-01T01:47:14.989Z,18.73
2019-03-01T01:48:14.783Z,18.72
2019-03-01T01:49:14.894Z,18.73
2019-03-01T01:50:14.803Z,18.7
2019-03-01T01:51:14.770Z,18.72
2019-03-01T01:52:14.957Z,18.72
2019-03-01T01:53:14.827Z,18.71
2019-03-01T01:54:14.913Z,18.71
2019-03-01T01:55:15.019Z,18.71
2019-03-01T01:56:14.765Z,18.71
2019-03-01T01:57:14.872Z,18.72
2019-03-01T01:58:14.985Z,18.71
2019-03-01T01:59:14.798Z,18.7
2019-03-01T02:00:14.831Z,18.69
2019-03-01T02:01:14.987Z,18.67
2019-03-01T02:02:14.818Z,18.7
2019-03-01T02:03:14.868Z,18.69
2019-03-01T02:04:15.000Z,18.69
2019-03-01T02:05:15.029Z,18.69
2019-03-01T02:06:14.897Z,18.7
2019-03-01T02:07:15.037Z,18.67
2019-03-01T02:08:14.902Z,18.69
2019-03-01T02:09:14.908Z,18.68
2019-03-01T02:10:14.946Z,18.69
2019-03-01T02:11:14.884Z,18.68
2019-03-01T02:12:14.887Z,18.69
2019-03-01T02:13:14.773Z,18.69
2019-03-01T02:14:14.854Z,18.69
2019-03-01T02:15:14.966Z,18.69
2019-03-01T02:16:14.808Z,18.68
2019-03-01T02:17:14.903Z,18.67
2019-03-01T02:18:14.969Z,18.68
2019-03-01T02:19:14.851Z,18.66
2019-03-01T02:20:14.920Z,18.66
2019-03-01T02:21:14.970Z,18.68
2019-03-01T02:22:14.874Z,18.66
2019-03-01T02:23:15.136Z,18.67
2019-03-01T02:24:14.974Z,18.66
2019-03-01T02:25:14.831Z,18.65
2019-03-01T02:26:14.981Z,18.66
2019-03-01T02:27:14.996Z,18.66
2019-03-01T02:28:14.820Z,18.66
2019-03-01T02:29:14.997Z,18.64
2019-03-01T02:30:14.884Z,18.64
2019-03-01T02:31:14.975Z,18.65
2019-03-01T02:32:15.019Z,18.62
2019-03-01T02:33:14.837Z,18.62
2019-03-01T02:34:14.821Z,18.65
2019-03-01T02:35:15.108Z,18.64
2019-03-01T02:36:14.824Z,18.64
2019-03-01T02:37:14.888Z,18.62
2019-03-01T02:38:14.977Z,18.62
2019-03-01T02:39:14.835Z,18.63
2019-03-01T02:40:14.896Z,18.64
2019-03-01T02:41:15.011Z,18.62
2019-03-01T02:42:14.848Z,18.62
2019-03-01T02:43:14.875Z,18.62
2019-03-01T02:44:15.009Z,18.62
2019-03-01T02:45:14.906Z,18.61
2019-03-01T02:46:14.971Z,18.61
2019-03-01T02:47:14.856Z,18.61
2019-03-01T02:48:14.981Z,18.61
2019-03-01T02:49:14.945Z,18.61
2019-03-01T02:50:14.725Z,18.62
2019-03-01T02:51:14.918Z,18.59
2019-03-01T02:52:14.954Z,18.58
2019-03-01T02:53:14.829Z,18.57
2019-03-01T02:54:14.946Z,18.59
2019-03-01T02:55:14.960Z,18.59
2019-03-01T02:56:14.809Z,18.58
2019-03-01T02:57:14.806Z,18.59
2019-03-01T02:58:15.017Z,18.56
2019-03-01T02:59:14.815Z,18.58
2019-03-01T03:00:14.917Z,18.57
2019-03-01T03:01:14.982Z,18.57
2019-03-01T03:02:14.879Z,18.59
2019-03-01T03:03:14.836Z,18.57
2019-03-01T03:04:15.041Z,18.57
2019-03-01T03:05:14.726Z,18.57
2019-03-01T03:06:14.916Z,18.56
2019-03-01T03:07:15.063Z,18.57
2019-03-01T03:08:14.912Z,18.57
2019-03-01T03:09:15.173Z,18.57
2019-03-01T03:10:15.004Z,18.55
2019-03-01T03:11:14.977Z,18.54
2019-03-01T03:12:14.992Z,18.53
2019-03-01T03:13:14.848Z,18.54
2019-03-01T03:14:14.868Z,18.57
2019-03-01T03:15:14.963Z,18.56
2019-03-01T03:16:14.872Z,18.57
2019-03-01T03:17:14.856Z,18.57
2019-03-01T03:18:15.040Z,18.55
2019-03-01T03:19:14.879Z,18.53
2019-03-01T03:20:14.810Z,18.54
2019-03-01T03:21:15.058Z,18.53
2019-03-01T03:22:14.820Z,18.54
2019-03-01T03:23:14.898Z,18.54
2019-03-01T03:24:14.993Z,18.53
2019-03-01T03:25:14.858Z,18.53
2019-03-01T03:26:14.996Z,18.53
2019-03-01T03:27:15.004Z,18.53
2019-03-01T03:28:15.036Z,18.52
2019-03-01T03:29:14.857Z,18.54
2019-03-01T03:30:14.851Z,18.53
2019-03-01T03:31:15.135Z,18.51
2019-03-01T03:32:15.191Z,18.51
2019-03-01T03:33:14.936Z,18.53
2019-03-01T03:34:15.041Z,18.51
2019-03-01T03:35:15.048Z,18.53
2019-03-01T03:36:14.882Z,18.52
2019-03-01T03:37:14.927Z,18.49
2019-03-01T03:38:14.988Z,18.53
2019-03-01T03:39:14.777Z,18.49
2019-03-01T03:40:14.962Z,18.52
2019-03-01T03:41:15.061Z,18.5
2019-03-01T03:42:15.125Z,18.51
2019-03-01T03:43:15.068Z,18.49
2019-03-01T03:44:14.851Z,18.5
2019-03-01T03:45:14.893Z,18.49
2019-03-01T03:46:15.053Z,18.49
2019-03-01T03:47:14.924Z,18.49
2019-03-01T03:48:14.904Z,18.46
2019-03-01T03:49:15.057Z,18.49
2019-03-01T03:50:15.013Z,18.49
2019-03-01T03:51:14.878Z,18.48
2019-03-01T03:52:15.080Z,18.47
2019-03-01T03:53:15.253Z,18.47
2019-03-01T03:54:14.967Z,18.49
2019-03-01T03:55:15.029Z,18.48
2019-03-01T03:56:14.915Z,18.48
2019-03-01T03:57:14.927Z,18.49
2019-03-01T03:58:15.165Z,18.47
2019-03-01T03:59:14.863Z,18.49
2019-03-01T04:00:15.062Z,18.46
2019-03-01T04:01:14.901Z,18.46
2019-03-01T04:02:14.946Z,18.46
2019-03-01T04:03:15.094Z,18.46
2019-03-01T04:04:14.773Z,18.44
2019-03-01T04:05:15.094Z,18.48
2019-03-01T04:06:15.105Z,18.47
2019-03-01T04:07:14.866Z,18.41
2019-03-01T04:08:14.962Z,18.43
2019-03-01T04:09:14.826Z,18.46
2019-03-01T04:10:14.936Z,18.44
2019-03-01T04:11:15.003Z,18.46
2019-03-01T04:12:14.888Z,18.46
2019-03-01T04:13:17.106Z,18.43
2019-03-01T04:14:15.019Z,18.42
2019-03-01T04:15:15.052Z,18.44
2019-03-01T04:16:14.962Z,18.42
2019-03-01T04:17:15.005Z,18.44
2019-03-01T04:18:14.822Z,18.44
2019-03-01T04:19:14.894Z,18.43
2019-03-01T04:20:15.032Z,18.41
2019-03-01T04:21:14.872Z,18.43
2019-03-01T04:22:14.878Z,18.41
2019-03-01T04:23:15.071Z,18.42
2019-03-01T04:24:14.968Z,18.43
2019-03-01T04:25:14.923Z,18.42
2019-03-01T04:26:15.049Z,18.44
2019-03-01T04:27:14.954Z,18.42
2019-03-01T04:28:15.015Z,18.42
2019-03-01T04:29:14.901Z,18.43
2019-03-01T04:30:14.918Z,18.42
2019-03-01T04:31:14.936Z,18.43
2019-03-01T04:32:14.758Z,18.4
2019-03-01T04:33:14.884Z,18.42
2019-03-01T04:34:14.900Z,18.43
2019-03-01T04:35:14.777Z,18.4
2019-03-01T04:36:14.867Z,18.41
2019-03-01T04:37:15.204Z,18.42
2019-03-01T04:38:14.999Z,18.41
2019-03-01T04:39:14.913Z,18.41
2019-03-01T04:40:14.706Z,18.4
2019-03-01T04:41:14.837Z,18.41
2019-03-01T04:42:14.862Z,18.38
2019-03-01T04:43:14.730Z,18.4
2019-03-01T04:44:14.836Z,18.38
2019-03-01T04:45:14.946Z,18.41
2019-03-01T04:46:14.706Z,18.41
2019-03-01T04:47:14.755Z,18.4
2019-03-01T04:48:14.897Z,18.41
2019-03-01T04:49:14.818Z,18.4
2019-03-01T04:50:14.790Z,18.39
2019-03-01T04:51:14.904Z,18.41
2019-03-01T04:52:14.769Z,18.41
2019-03-01T04:53:14.800Z,18.41
2019-03-01T04:54:14.903Z,18.42
2019-03-01T04:55:14.884Z,18.42
2019-03-01T04:56:14.802Z,18.43
2019-03-01T04:57:14.954Z,18.42
2019-03-01T04:58:14.828Z,18.44
2019-03-01T04:59:14.801Z,18.44
2019-03-01T05:00:14.842Z,18.46
2019-03-01T05:01:14.724Z,18.5
2019-03-01T05:02:14.799Z,18.5
2019-03-01T05:03:14.976Z,18.52
2019-03-01T05:04:14.786Z,18.52
2019-03-01T05:05:14.830Z,18.55
2019-03-01T05:06:14.652Z,18.56
2019-03-01T05:07:14.780Z,18.57
2019-03-01T05:08:14.924Z,18.62
2019-03-01T05:09:14.695Z,18.61
2019-03-01T05:10:14.829Z,18.63
2019-03-01T05:11:14.825Z,18.65
2019-03-01T05:12:14.736Z,18.65
2019-03-01T05:13:15.016Z,18.69
2019-03-01T05:14:14.902Z,18.68
2019-03-01T05:15:14.841Z,18.71
2019-03-01T05:16:14.810Z,18.71
2019-03-01T05:17:14.682Z,18.73
2019-03-01T05:18:14.692Z,18.74
2019-03-01T05:19:15.016Z,18.77
2019-03-01T05:20:15.109Z,18.79
2019-03-01T05:21:14.763Z,18.8
2019-03-01T05:22:14.911Z,18.8
2019-03-01T05:23:14.702Z,18.82
2019-03-01T05:24:14.756Z,18.84
2019-03-01T05:25:14.913Z,18.85
2019-03-01T05:26:14.628Z,18.85
2019-03-01T05:27:14.767Z,18.87
2019-03-01T05:28:15.114Z,18.88
2019-03-01T05:29:14.758Z,18.91
2019-03-01T05:30:14.796Z,18.91
2019-03-01T05:31:14.939Z,18.93
2019-03-01T05:32:14.749Z,18.95
2019-03-01T05:33:14.842Z,18.95
2019-03-01T05:34:14.639Z,18.97
2019-03-01T05:35:14.714Z,18.98
2019-03-01T05:36:14.906Z,18.99
2019-03-01T05:37:14.685Z,19.02
2019-03-01T05:38:22.358Z,19.05
2019-03-01T05:39:14.857Z,19.06
2019-03-01T05:40:14.668Z,19.07
2019-03-01T05:41:14.888Z,19.07
2019-03-01T05:42:14.844Z,19.07
2019-03-01T05:43:14.675Z,19.09
2019-03-01T05:44:14.800Z,19.1
2019-03-01T05:45:14.903Z,19.11
2019-03-01T05:46:14.685Z,19.13
2019-03-01T05:47:14.924Z,19.13
2019-03-01T05:48:14.848Z,19.15
2019-03-01T05:49:14.727Z,19.15
2019-03-01T05:50:14.880Z,19.17
2019-03-01T05:51:14.690Z,19.17
2019-03-01T05:52:14.728Z,19.21
2019-03-01T05:53:14.929Z,19.2
2019-03-01T05:54:14.778Z,19.21
2019-03-01T05:55:14.764Z,19.23
2019-03-01T05:56:14.866Z,19.25
2019-03-01T05:57:14.720Z,19.25
2019-03-01T05:58:17.199Z,19.27
2019-03-01T05:59:15.060Z,19.27
2019-03-01T06:00:14.810Z,19.29
2019-03-01T06:01:14.829Z,19.28
2019-03-01T06:02:14.881Z,19.3
2019-03-01T06:03:14.967Z,19.32
2019-03-01T06:04:14.756Z,19.32
2019-03-01T06:05:14.900Z,19.32
2019-03-01T06:06:14.732Z,19.35
2019-03-01T06:07:14.746Z,19.36
2019-03-01T06:08:14.900Z,19.36
2019-03-01T06:09:14.793Z,19.37
2019-03-01T06:10:14.795Z,19.37
2019-03-01T06:11:14.685Z,19.38
2019-03-01T06:12:14.817Z,19.39
2019-03-01T06:13:14.798Z,19.41
2019-03-01T06:14:15.027Z,19.39
2019-03-01T06:15:14.872Z,19.42
2019-03-01T06:16:14.867Z,19.41
2019-03-01T06:17:14.660Z,19.41
2019-03-01T06:18:14.821Z,19.44
2019-03-01T06:19:14.869Z,19.43
2019-03-01T06:20:14.700Z,19.44
2019-03-01T06:21:14.878Z,19.44
2019-03-01T06:22:14.887Z,19.44
2019-03-01T06:23:14.668Z,19.45
2019-03-01T06:24:15.190Z,19.44
2019-03-01T06:25:15.216Z,19.46
2019-03-01T06:26:14.817Z,19.46
2019-03-01T06:27:16.643Z,19.48
2019-03-01T06:28:14.710Z,19.48
2019-03-01T06:29:14.767Z,19.47
2019-03-01T06:30:14.903Z,19.47
2019-03-01T06:31:14.769Z,19.47
2019-03-01T06:32:14.864Z,19.5
2019-03-01T06:33:14.899Z,19.51
2019-03-01T06:34:14.791Z,19.5
2019-03-01T06:35:14.727Z,19.52
2019-03-01T06:36:14.820Z,19.5
2019-03-01T06:37:14.787Z,19.51
2019-03-01T06:38:16.395Z,19.5
2019-03-01T06:39:14.963Z,19.5
2019-03-01T06:40:14.834Z,19.5
2019-03-01T06:41:14.800Z,19.52
2019-03-01T06:42:14.900Z,19.53
2019-03-01T06:43:14.801Z,19.52
2019-03-01T06:44:14.750Z,19.52
2019-03-01T06:45:14.933Z,19.55
2019-03-01T06:46:14.784Z,19.53
2019-03-01T06:47:14.786Z,19.56
2019-03-01T06:48:15.180Z,19.55
2019-03-01T06:49:14.732Z,19.56
2019-03-01T06:50:14.768Z,19.56
2019-03-01T06:51:14.920Z,19.56
2019-03-01T06:52:14.740Z,19.56
2019-03-01T06:53:14.761Z,19.58
2019-03-01T06:54:14.650Z,19.6
2019-03-01T06:55:14.735Z,19.59
2019-03-01T06:56:14.751Z,19.6
2019-03-01T06:57:14.615Z,19.59
2019-03-01T06:58:14.749Z,19.59
2019-03-01T06:59:14.795Z,19.6
2019-03-01T07:00:14.653Z,19.61
2019-03-01T07:01:14.783Z,19.63
2019-03-01T07:02:15.093Z,19.62
2019-03-01T07:03:14.655Z,19.62
2019-03-01T07:04:14.732Z,19.65
2019-03-01T07:05:14.798Z,19.66
2019-03-01T07:06:14.622Z,19.66
2019-03-01T07:07:14.873Z,19.66
2019-03-01T07:08:15.156Z,19.67
2019-03-01T07:09:14.777Z,19.66
2019-03-01T07:10:15.246Z,19.67
2019-03-01T07:11:14.790Z,19.68
2019-03-01T07:12:14.790Z,19.67
2019-03-01T07:13:14.908Z,19.7
2019-03-01T07:14:14.642Z,19.71
2019-03-01T07:15:14.820Z,19.71
2019-03-01T07:16:14.812Z,19.71
2019-03-01T07:17:14.881Z,19.74
2019-03-01T07:18:14.787Z,19.72
2019-03-01T07:19:14.834Z,19.72
2019-03-01T07:20:14.842Z,19.75
2019-03-01T07:21:14.677Z,19.74
2019-03-01T07:22:14.814Z,19.73
2019-03-01T07:23:14.680Z,19.76
2019-03-01T07:24:15.479Z,19.75
2019-03-01T07:25:15.017Z,19.76
2019-03-01T07:26:14.697Z,19.79
2019-03-01T07:27:14.837Z,19.76
2019-03-01T07:28:14.880Z,19.79
2019-03-01T07:29:14.686Z,19.77
2019-03-01T07:30:14.768Z,19.8
2019-03-01T07:31:14.860Z,19.81
2019-03-01T07:32:14.863Z,19.82
2019-03-01T07:33:14.723Z,19.79
2019-03-01T07:34:14.890Z,19.75
2019-03-01T07:35:14.825Z,19.71
2019-03-01T07:36:14.665Z,19.62
2019-03-01T07:37:14.758Z,19.57
2019-03-01T07:38:14.628Z,19.56
2019-03-01T07:39:14.702Z,19.56
2019-03-01T07:40:14.792Z,19.53
2019-03-01T07:41:14.637Z,19.41
2019-03-01T07:42:14.783Z,19.41
2019-03-01T07:43:14.750Z,19.42
2019-03-01T07:44:14.688Z,19.42
2019-03-01T07:45:14.693Z,19.43
2019-03-01T07:46:14.809Z,19.42
2019-03-01T07:47:14.646Z,19.42
2019-03-01T07:48:14.692Z,19.45
2019-03-01T07:49:14.762Z,19.45
2019-03-01T07:50:14.578Z,19.51
2019-03-01T07:51:14.746Z,19.51
2019-03-01T07:52:14.806Z,19.52
2019-03-01T07:53:14.580Z,19.54
2019-03-01T07:54:18.231Z,19.52
2019-03-01T07:55:14.883Z,19.53
2019-03-01T07:56:14.825Z,19.57
2019-03-01T07:57:15.839Z,19.53
2019-03-01T07:58:14.946Z,19.57
2019-03-01T07:59:14.818Z,19.57
2019-03-01T08:00:15.145Z,19.56
2019-03-01T08:01:14.741Z,19.59
2019-03-01T08:02:14.934Z,19.56
2019-03-01T08:03:16.157Z,19.59
2019-03-01T08:04:14.852Z,19.59
2019-03-01T08:05:16.998Z,19.59
2019-03-01T08:06:14.697Z,19.6
2019-03-01T08:07:14.845Z,19.59
2019-03-01T08:08:14.769Z,19.6
2019-03-01T08:09:14.636Z,19.59
2019-03-01T08:10:23.604Z,19.62
2019-03-01T08:11:14.912Z,19.59
2019-03-01T08:12:14.932Z,19.61
2019-03-01T08:13:18.616Z,19.59
2019-03-01T08:14:14.841Z,19.61
2019-03-01T08:15:14.648Z,19.59
2019-03-01T08:16:21.639Z,19.61
2019-03-01T08:17:14.774Z,19.59
2019-03-01T08:18:14.751Z,19.6
2019-03-01T08:19:23.803Z,19.61
2019-03-01T08:20:15.058Z,19.59
2019-03-01T08:21:15.235Z,19.6
2019-03-01T08:22:14.811Z,19.61
2019-03-01T08:23:14.731Z,19.59
2019-03-01T08:24:14.628Z,19.59
2019-03-01T08:25:14.909Z,19.58
2019-03-01T08:26:14.908Z,19.6
2019-03-01T08:27:14.624Z,19.57
2019-03-01T08:28:14.877Z,19.59
2019-03-01T08:29:14.779Z,19.59
2019-03-01T08:30:14.649Z,19.59
2019-03-01T08:31:22.379Z,19.57
2019-03-01T08:32:14.788Z,19.56
2019-03-01T08:33:14.942Z,19.56
2019-03-01T08:34:18.830Z,19.56
2019-03-01T08:35:14.904Z,19.55
2019-03-01T08:36:14.759Z,19.55
2019-03-01T08:37:18.664Z,19.56
2019-03-01T08:38:14.862Z,19.54
2019-03-01T08:39:14.649Z,19.53
2019-03-01T08:40:15.855Z,19.54
2019-03-01T08:41:14.800Z,19.52
2019-03-01T08:42:14.583Z,19.52
2019-03-01T08:43:14.724Z,19.53
2019-03-01T08:44:14.831Z,19.52
2019-03-01T08:45:14.653Z,19.51
2019-03-01T08:46:14.755Z,19.52
2019-03-01T08:47:24.794Z,19.53
2019-03-01T08:48:14.616Z,19.5
2019-03-01T08:49:14.791Z,19.5
2019-03-01T08:50:14.938Z,19.52
2019-03-01T08:51:14.599Z,19.53
2019-03-01T08:52:14.645Z,19.5
2019-03-01T08:53:16.307Z,19.5
2019-03-01T08:54:14.769Z,19.5
2019-03-01T08:55:14.730Z,19.5
2019-03-01T08:56:15.730Z,19.5
2019-03-01T08:57:14.604Z,19.51
2019-03-01T08:58:14.881Z,19.52
2019-03-01T08:59:18.906Z,19.52
2019-03-01T09:00:14.625Z,19.52
2019-03-01T09:01:14.697Z,19.55
2019-03-01T09:02:14.700Z,19.52
2019-03-01T09:03:23.297Z,19.55
2019-03-01T09:04:21.794Z,19.53
2019-03-01T09:05:14.824Z,19.54
2019-03-01T09:06:14.589Z,19.54
2019-03-01T09:07:14.693Z,19.56
2019-03-01T09:08:14.749Z,19.56
2019-03-01T09:09:22.130Z,19.56
2019-03-01T09:10:14.936Z,19.56
2019-03-01T09:11:14.703Z,19.57
2019-03-01T09:12:14.829Z,19.57
2019-03-01T09:13:14.768Z,19.56
2019-03-01T09:14:14.657Z,19.57
2019-03-01T09:15:14.821Z,19.57
2019-03-01T09:16:14.646Z,19.59
2019-03-01T09:17:14.659Z,19.57
2019-03-01T09:18:15.583Z,19.57
2019-03-01T09:19:14.984Z,19.56
2019-03-01T09:20:14.663Z,19.59
2019-03-01T09:21:14.792Z,19.57
2019-03-01T09:22:14.624Z,19.61
2019-03-01T09:23:27.535Z,19.59
2019-03-01T09:24:14.810Z,19.6
2019-03-01T09:25:14.842Z,19.61
2019-03-01T09:26:20.922Z,19.61
2019-03-01T09:27:14.769Z,19.6
2019-03-01T09:28:14.902Z,19.59
2019-03-01T09:29:19.632Z,19.6
2019-03-01T09:30:14.854Z,19.59
2019-03-01T09:31:14.770Z,19.59
2019-03-01T09:32:14.602Z,19.59
2019-03-01T09:33:23.205Z,19.59
2019-03-01T09:34:14.772Z,19.59
2019-03-01T09:35:14.730Z,19.59
2019-03-01T09:36:21.718Z,19.61
2019-03-01T09:37:14.786Z,19.58
2019-03-01T09:38:14.648Z,19.59
2019-03-01T09:39:19.397Z,19.6
2019-03-01T09:40:14.934Z,19.6
2019-03-01T09:41:14.622Z,19.6
2019-03-01T09:42:16.560Z,19.6
2019-03-01T09:43:14.770Z,19.59
2019-03-01T09:44:14.593Z,19.58
2019-03-01T09:45:14.808Z,19.56
2019-03-01T09:46:14.724Z,19.59
2019-03-01T09:47:14.609Z,19.56
2019-03-01T09:48:14.732Z,19.57
2019-03-01T09:49:14.753Z,19.55
2019-03-01T09:50:14.719Z,19.53
2019-03-01T09:51:16.234Z,19.55
2019-03-01T09:52:14.776Z,19.55
2019-03-01T09:53:14.546Z,19.55
2019-03-01T09:54:14.766Z,19.55
2019-03-01T09:55:14.731Z,19.54
2019-03-01T09:56:14.681Z,19.55
2019-03-01T09:57:16.655Z,19.55
2019-03-01T09:58:14.922Z,19.53
2019-03-01T09:59:14.564Z,19.52
2019-03-01T10:00:14.766Z,19.55
2019-03-01T10:01:14.857Z,19.53
2019-03-01T10:02:14.725Z,19.54
2019-03-01T10:03:14.744Z,19.53
2019-03-01T10:04:14.878Z,19.52
2019-03-01T10:05:14.621Z,19.5
2019-03-01T10:06:14.738Z,19.51
2019-03-01T10:07:14.749Z,19.52
2019-03-01T10:08:14.643Z,19.51
2019-03-01T10:09:14.717Z,19.51
2019-03-01T10:10:14.733Z,19.5
2019-03-01T10:11:14.591Z,19.51
2019-03-01T10:12:14.651Z,19.52
2019-03-01T10:13:14.817Z,19.5
2019-03-01T10:14:14.617Z,19.52
2019-03-01T10:15:14.680Z,19.5
2019-03-01T10:16:14.809Z,19.51
2019-03-01T10:17:14.566Z,19.51
2019-03-01T10:18:14.720Z,19.51
2019-03-01T10:19:14.727Z,19.51
2019-03-01T10:20:14.614Z,19.54
2019-03-01T10:21:14.759Z,19.52
2019-03-01T10:22:14.738Z,19.52
2019-03-01T10:23:14.718Z,19.53
2019-03-01T10:24:15.109Z,19.52
2019-03-01T10:25:14.818Z,19.53
2019-03-01T10:26:14.557Z,19.52
2019-03-01T10:27:14.764Z,19.52
2019-03-01T10:28:14.590Z,19.51
2019-03-01T10:29:14.599Z,19.52
2019-03-01T10:30:14.796Z,19.51
2019-03-01T10:31:14.605Z,19.51
2019-03-01T10:32:14.617Z,19.52
2019-03-01T10:33:14.784Z,19.5
2019-03-01T10:34:14.646Z,19.5
2019-03-01T10:35:14.647Z,19.5
2019-03-01T10:36:14.807Z,19.5
2019-03-01T10:37:14.585Z,19.51
2019-03-01T10:38:14.597Z,19.48
2019-03-01T10:39:14.803Z,19.47
2019-03-01T10:40:14.619Z,19.48
2019-03-01T10:41:14.656Z,19.5
2019-03-01T10:42:14.851Z,19.47
2019-03-01T10:43:14.638Z,19.5
2019-03-01T10:44:14.643Z,19.45
2019-03-01T10:45:14.803Z,19.47
2019-03-01T10:46:14.783Z,19.46
2019-03-01T10:47:14.717Z,19.45
2019-03-01T10:48:14.711Z,19.43
2019-03-01T10:49:14.901Z,19.45
2019-03-01T10:50:14.715Z,19.44
2019-03-01T10:51:14.933Z,19.41
2019-03-01T10:52:14.737Z,19.42
2019-03-01T10:53:15.358Z,19.42
2019-03-01T10:54:14.682Z,19.42
2019-03-01T10:55:14.726Z,19.4
2019-03-01T10:56:14.539Z,19.4
2019-03-01T10:57:16.013Z,19.39
2019-03-01T10:58:14.713Z,19.4
2019-03-01T10:59:14.545Z,19.39
2019-03-01T11:00:14.889Z,19.4
2019-03-01T11:01:14.704Z,19.4
2019-03-01T11:02:14.543Z,19.4
2019-03-01T11:03:14.740Z,19.39
2019-03-01T11:04:14.812Z,19.37
2019-03-01T11:05:14.574Z,19.37
2019-03-01T11:06:14.878Z,19.36
2019-03-01T11:07:14.716Z,19.36
2019-03-01T11:08:14.908Z,19.33
2019-03-01T11:09:14.731Z,19.33
2019-03-01T11:10:14.778Z,19.33
2019-03-01T11:11:14.666Z,19.33
2019-03-01T11:12:14.748Z,19.32
2019-03-01T11:13:14.556Z,19.32
2019-03-01T11:14:14.670Z,19.3
2019-03-01T11:15:14.829Z,19.3
2019-03-01T11:16:14.612Z,19.28
2019-03-01T11:17:14.651Z,19.29
2019-03-01T11:18:14.787Z,19.27
2019-03-01T11:19:14.602Z,19.26
2019-03-01T11:20:14.638Z,19.26
2019-03-01T11:21:14.798Z,19.25
2019-03-01T11:22:14.686Z,19.25
2019-03-01T11:23:14.653Z,19.25
2019-03-01T11:24:14.758Z,19.23
2019-03-01T11:25:14.661Z,19.22
2019-03-01T11:26:14.628Z,19.24
2019-03-01T11:27:14.781Z,19.25
2019-03-01T11:28:14.540Z,19.21
2019-03-01T11:29:14.772Z,19.2
2019-03-01T11:30:14.913Z,19.17
2019-03-01T11:31:14.555Z,19.17
2019-03-01T11:32:14.798Z,19.18
2019-03-01T11:33:14.813Z,19.17
2019-03-01T11:34:14.684Z,19.18
2019-03-01T11:35:14.688Z,19.17
2019-03-01T11:36:14.611Z,19.14
2019-03-01T11:37:14.602Z,19.14
2019-03-01T11:38:14.676Z,19.13
2019-03-01T11:39:14.508Z,19.14
2019-03-01T11:40:14.725Z,19.13
2019-03-01T11:41:14.679Z,19.15
2019-03-01T11:42:14.550Z,19.13
2019-03-01T11:43:14.622Z,19.11
2019-03-01T11:44:14.678Z,19.13
2019-03-01T11:45:14.612Z,19.11
2019-03-01T11:46:14.710Z,19.12
2019-03-01T11:47:14.667Z,19.11
2019-03-01T11:48:14.523Z,19.12
2019-03-01T11:49:14.665Z,19.09
2019-03-01T11:50:14.695Z,19.1
2019-03-01T11:51:14.491Z,19.08
2019-03-01T11:52:14.862Z,19.09
2019-03-01T11:53:14.709Z,19.08
2019-03-01T11:54:14.559Z,19.07
2019-03-01T11:55:14.639Z,19.05
2019-03-01T11:56:14.783Z,19.03
2019-03-01T11:57:14.531Z,19.06
2019-03-01T11:58:14.702Z,19.05
2019-03-01T11:59:14.660Z,19.06
2019-03-01T12:00:14.596Z,19.08
2019-03-01T12:01:17.784Z,19.09
2019-03-01T12:02:14.554Z,19.09
2019-03-01T12:03:15.752Z,19.11
2019-03-01T12:04:14.704Z,19.13
2019-03-01T12:05:14.510Z,19.16
2019-03-01T12:06:14.838Z,19.14
2019-03-01T12:07:14.714Z,19.17
2019-03-01T12:08:14.546Z,19.17
2019-03-01T12:09:14.826Z,19.21
2019-03-01T12:10:14.736Z,19.21
2019-03-01T12:11:14.514Z,19.22
2019-03-01T12:12:14.562Z,19.24
2019-03-01T12:13:14.786Z,19.25
2019-03-01T12:14:14.597Z,19.26
2019-03-01T12:15:14.934Z,19.27
2019-03-01T12:16:14.877Z,19.28
2019-03-01T12:17:14.712Z,19.3
2019-03-01T12:18:14.707Z,19.33
2019-03-01T12:19:14.713Z,19.33
2019-03-01T12:20:14.581Z,19.36
2019-03-01T12:21:14.700Z,19.39
2019-03-01T12:22:17.809Z,19.39
2019-03-01T12:23:14.697Z,19.41
2019-03-01T12:24:14.653Z,19.41
2019-03-01T12:25:14.715Z,19.41
2019-03-01T12:26:14.828Z,19.41
2019-03-01T12:27:14.571Z,19.42
2019-03-01T12:28:14.685Z,19.43
2019-03-01T12:29:14.805Z,19.43
2019-03-01T12:30:14.996Z,19.45
2019-03-01T12:31:14.663Z,19.45
2019-03-01T12:32:14.703Z,19.45
2019-03-01T12:33:14.686Z,19.45
2019-03-01T12:34:14.616Z,19.45
2019-03-01T12:35:14.735Z,19.48
2019-03-01T12:36:14.684Z,19.48
2019-03-01T12:37:14.592Z,19.5
2019-03-01T12:38:14.798Z,19.5
2019-03-01T12:39:14.575Z,19.53
2019-03-01T12:40:14.745Z,19.52
2019-03-01T12:41:14.724Z,19.55
2019-03-01T12:42:14.692Z,19.56
2019-03-01T12:43:14.673Z,19.58
2019-03-01T12:44:14.505Z,19.59
2019-03-01T12:45:14.532Z,19.56
2019-03-01T12:46:14.728Z,19.59
2019-03-01T12:47:14.719Z,19.6
2019-03-01T12:48:14.563Z,19.62
2019-03-01T12:49:14.667Z,19.62
2019-03-01T12:50:14.541Z,19.63
2019-03-01T12:51:14.537Z,19.63
2019-03-01T12:52:14.711Z,19.66
2019-03-01T12:53:14.582Z,19.66
2019-03-01T12:54:14.552Z,19.65
2019-03-01T12:55:14.699Z,19.67